createdAt,value
2019-02-18T00:00:41.101Z,23.60
2019-02-18T00:03:12.933Z,25.50
2019-02-18T00:05:44.556Z,23.57
2019-02-18T00:08:16.221Z,23.83
2019-02-18T00:10:47.853Z,23.77
2019-02-18T00:13:19.492Z,25.53
2019-02-18T00:15:51.121Z,27.07
2019-02-18T00:18:22.762Z,25.63
2019-02-18T00:20:54.396Z,25.43
2019-02-18T00:23:26.057Z,26.83
2019-02-18T00:25:57.750Z,27.03
2019-02-18T00:28:29.381Z,27.60
2019-02-18T00:31:01.005Z,25.90
2019-02-18T00:33:32.660Z,26.60
2019-02-18T00:36:04.301Z,27.83
2019-02-18T00:38:35.950Z,25.97
2019-02-18T00:41:07.664Z,26.20
2019-02-18T00:43:39.640Z,29.80
2019-02-18T00:46:11.472Z,29.27
2019-02-18T00:48:43.179Z,26.67
2019-02-18T00:51:14.913Z,27.20
2019-02-18T00:53:46.544Z,27.23
2019-02-18T00:56:18.249Z,27.80
2019-02-18T00:58:49.971Z,28.90
2019-02-18T01:01:21.676Z,27.47
2019-02-18T01:03:53.329Z,28.13
2019-02-18T01:06:24.950Z,28.90
2019-02-18T01:08:56.604Z,27.70
2019-02-18T01:11:28.249Z,28.17
2019-02-18T01:13:59.889Z,26.27
2019-02-18T01:16:31.570Z,26.17
2019-02-18T01:19:03.249Z,28.30
2019-02-18T01:21:34.882Z,27.80
2019-02-18T01:24:06.510Z,25.53
2019-02-18T01:26:38.129Z,26.37
2019-02-18T01:29:09.862Z,25.63
2019-02-18T01:31:41.481Z,26.23
2019-02-18T01:34:13.137Z,26.90
2019-02-18T01:36:44.780Z,28.50
2019-02-18T01:39:16.907Z,26.97
2019-02-18T01:41:48.608Z,25.27
2019-02-18T01:44:20.252Z,26.17
2019-02-18T01:46:51.882Z,26.53
2019-02-18T01:49:23.532Z,24.73
2019-02-18T01:51:55.156Z,23.63
2019-02-18T01:54:27.382Z,23.87
2019-02-18T01:56:59.018Z,23.17
2019-02-18T01:59:32.069Z,23.53
2019-02-18T02:02:03.801Z,23.20
2019-02-18T02:04:35.587Z,23.80
2019-02-18T02:07:07.328Z,24.17
2019-02-18T02:09:39.498Z,24.33
2019-02-18T02:12:11.276Z,25.10
2019-02-18T02:14:43.000Z,24.97
2019-02-18T02:17:14.714Z,24.30
2019-02-18T02:19:46.340Z,23.60
2019-02-18T02:22:17.954Z,24.23
2019-02-18T02:24:49.611Z,23.67
2019-02-18T02:27:21.334Z,24.07
2019-02-18T02:29:53.064Z,25.10
2019-02-18T02:32:24.758Z,26.00
2019-02-18T02:34:56.462Z,24.93
2019-02-18T02:37:28.101Z,22.83
2019-02-18T02:39:59.825Z,22.47
2019-02-18T02:42:31.470Z,25.37
2019-02-18T02:45:03.553Z,25.03
2019-02-18T02:47:35.211Z,26.77
2019-02-18T02:50:07.219Z,27.13
2019-02-18T02:52:38.905Z,27.23
2019-02-18T02:55:10.530Z,26.43
2019-02-18T02:57:42.153Z,26.00
2019-02-18T03:00:13.917Z,30.07
2019-02-18T03:02:45.558Z,27.17
2019-02-18T03:05:17.209Z,29.80
2019-02-18T03:07:48.990Z,29.23
2019-02-18T03:10:20.963Z,29.03
2019-02-18T03:12:52.750Z,31.00
2019-02-18T03:15:24.394Z,30.13
2019-02-18T03:17:56.040Z,30.23
2019-02-18T03:20:27.655Z,32.23
2019-02-18T03:22:59.293Z,30.13
2019-02-18T03:25:30.990Z,29.50
2019-02-18T03:28:40.559Z,29.97
2019-02-18T03:31:16.995Z,26.87
2019-02-18T03:33:52.826Z,30.07
2019-02-18T03:36:24.557Z,28.93
2019-02-18T03:38:56.294Z,29.00
2019-02-18T03:41:28.027Z,29.07
2019-02-18T03:43:59.652Z,30.13
2019-02-18T03:46:31.542Z,29.83
2019-02-18T03:49:03.171Z,29.10
2019-02-18T03:51:34.810Z,29.63
2019-02-18T03:54:06.441Z,29.87
2019-02-18T03:56:38.077Z,30.00
2019-02-18T03:59:09.705Z,32.53
2019-02-18T04:01:43.638Z,31.87
2019-02-18T04:04:15.761Z,32.70
2019-02-18T04:06:47.709Z,33.07
2019-02-18T04:09:19.426Z,33.00
2019-02-18T04:11:51.067Z,32.50
2019-02-18T04:14:22.738Z,30.90
2019-02-18T04:16:54.364Z,31.47
2019-02-18T04:19:25.989Z,30.70
2019-02-18T04:21:57.622Z,32.37
2019-02-18T04:24:29.246Z,31.87
2019-02-18T04:27:00.882Z,30.60
2019-02-18T04:29:32.677Z,31.77
2019-02-18T04:32:04.393Z,30.60
2019-02-18T04:34:36.129Z,30.23
2019-02-18T04:37:10.320Z,31.60
2019-02-18T04:39:41.949Z,30.67
2019-02-18T04:42:13.588Z,31.43
2019-02-18T04:44:45.258Z,31.17
2019-02-18T04:47:16.982Z,32.30
2019-02-18T04:49:48.705Z,31.77
2019-02-18T04:52:20.360Z,33.50
2019-02-18T04:54:52.056Z,32.60
2019-02-18T04:57:23.705Z,32.27
2019-02-18T04:59:55.342Z,31.67
2019-02-18T05:02:26.990Z,33.57
2019-02-18T05:04:58.626Z,33.20
2019-02-18T05:07:30.287Z,34.70
2019-02-18T05:10:02.053Z,34.27
2019-02-18T05:12:33.709Z,33.47
2019-02-18T05:15:05.549Z,34.07
2019-02-18T05:17:37.189Z,34.50
2019-02-18T05:20:08.987Z,33.70
2019-02-18T05:22:40.618Z,33.40
2019-02-18T05:25:13.009Z,32.90
2019-02-18T05:27:44.852Z,35.13
2019-02-18T05:30:16.472Z,35.83
2019-02-18T05:32:48.119Z,34.03
2019-02-18T05:35:19.744Z,34.57
2019-02-18T05:37:51.379Z,33.47
2019-02-18T05:40:23.130Z,35.47
2019-02-18T05:42:54.797Z,37.03
2019-02-18T05:45:26.461Z,37.43
2019-02-18T05:47:59.922Z,34.70
2019-02-18T05:50:31.569Z,38.27
2019-02-18T05:53:03.190Z,37.07
2019-02-18T05:55:34.942Z,36.13
2019-02-18T05:58:06.709Z,37.33
2019-02-18T06:00:38.380Z,36.00
2019-02-18T06:03:10.009Z,36.57
2019-02-18T06:05:41.638Z,38.73
2019-02-18T06:08:13.275Z,38.43
2019-02-18T06:10:44.922Z,37.43
2019-02-18T06:13:16.578Z,38.70
2019-02-18T06:15:48.197Z,37.30
2019-02-18T06:18:19.845Z,38.93
2019-02-18T06:20:51.484Z,37.47
2019-02-18T06:23:23.122Z,37.20
2019-02-18T06:25:54.752Z,37.97
2019-02-18T06:28:26.380Z,37.13
2019-02-18T06:30:58.025Z,36.90
2019-02-18T06:33:29.669Z,39.00
2019-02-18T06:36:01.306Z,36.63
2019-02-18T06:38:32.945Z,39.60
2019-02-18T06:41:04.590Z,38.93
2019-02-18T06:43:36.240Z,38.53
2019-02-18T06:46:28.295Z,39.83
2019-02-18T06:49:28.654Z,40.77
2019-02-18T06:52:00.265Z,37.63
2019-02-18T06:54:31.902Z,39.27
2019-02-18T06:57:20.391Z,36.93
2019-02-18T06:59:56.887Z,38.00
2019-02-18T07:02:51.106Z,36.97
2019-02-18T07:05:42.464Z,32.90
2019-02-18T07:08:36.690Z,30.50
2019-02-18T07:11:15.765Z,30.23
2019-02-18T07:13:47.381Z,28.47
2019-02-18T07:16:19.023Z,30.83
2019-02-18T07:18:50.658Z,28.37
2019-02-18T07:21:22.305Z,27.70
2019-02-18T07:23:53.938Z,25.80
2019-02-18T07:26:25.590Z,26.33
2019-02-18T07:28:57.201Z,24.73
2019-02-18T07:31:28.853Z,24.37
2019-02-18T07:34:00.516Z,25.80
2019-02-18T07:36:32.158Z,24.77
2019-02-18T07:39:05.334Z,23.50
2019-02-18T07:41:37.054Z,23.30
2019-02-18T07:44:08.706Z,20.83
2019-02-18T07:46:40.356Z,16.97
2019-02-18T07:49:11.993Z,14.53
2019-02-18T07:51:43.644Z,14.67
2019-02-18T07:54:15.327Z,14.43
2019-02-18T07:56:47.107Z,14.53
2019-02-18T07:59:18.736Z,14.67
2019-02-18T08:01:50.381Z,13.93
2019-02-18T08:04:22.014Z,14.60
2019-02-18T08:06:53.704Z,13.97
2019-02-18T08:09:25.436Z,13.60
2019-02-18T08:11:57.266Z,13.23
2019-02-18T08:14:28.942Z,14.70
2019-02-18T08:17:00.679Z,16.47
2019-02-18T08:19:32.417Z,14.57
2019-02-18T08:22:04.048Z,14.57
2019-02-18T08:24:35.690Z,15.33
2019-02-18T08:27:07.324Z,14.40
2019-02-18T08:29:39.097Z,16.10
2019-02-18T08:32:11.005Z,14.65
2019-02-18T08:34:42.722Z,15.30
2019-02-18T08:37:14.530Z,14.83
2019-02-18T08:39:46.200Z,15.65
2019-02-18T08:42:17.919Z,15.55
2019-02-18T08:44:49.732Z,16.30
2019-02-18T08:47:21.480Z,17.23
2019-02-18T08:49:53.145Z,15.43
2019-02-18T08:52:24.786Z,15.88
2019-02-18T08:54:57.002Z,14.95
2019-02-18T08:57:28.758Z,15.38
2019-02-18T09:00:00.429Z,14.43
2019-02-18T09:02:32.093Z,14.45
2019-02-18T09:05:04.226Z,13.95
2019-02-18T09:07:36.143Z,14.87
2019-02-18T09:10:08.721Z,14.73
2019-02-18T09:12:40.450Z,15.35
2019-02-18T09:15:14.178Z,15.10
2019-02-18T09:17:45.678Z,16.27
2019-02-18T09:20:17.346Z,15.18
2019-02-18T09:22:57.025Z,17.40
2019-02-18T09:25:38.402Z,15.70
2019-02-18T09:28:10.081Z,14.73
2019-02-18T09:30:43.637Z,16.02
2019-02-18T09:33:15.409Z,16.23
2019-02-18T09:35:47.088Z,20.05
2019-02-18T09:38:25.021Z,17.65
2019-02-18T09:40:52.386Z,14.38
2019-02-18T09:43:24.091Z,15.48
2019-02-18T09:45:55.765Z,13.55
2019-02-18T09:48:27.458Z,15.78
2019-02-18T09:51:00.188Z,16.97
2019-02-18T09:53:32.135Z,15.10
2019-02-18T09:56:03.830Z,16.15
2019-02-18T09:58:35.545Z,16.00
2019-02-18T10:01:07.221Z,17.73
2019-02-18T10:03:39.002Z,14.35
2019-02-18T10:06:10.697Z,16.97
2019-02-18T10:08:42.362Z,15.78
2019-02-18T10:11:14.043Z,15.85
2019-02-18T10:13:45.730Z,15.43
2019-02-18T10:16:17.394Z,13.65
2019-02-18T10:18:49.256Z,16.05
2019-02-18T10:21:21.534Z,14.18
2019-02-18T10:23:53.751Z,14.15
2019-02-18T10:26:25.973Z,13.30
2019-02-18T10:28:58.518Z,15.68
2019-02-18T10:31:31.258Z,13.85
2019-02-18T10:34:04.180Z,12.98
2019-02-18T10:36:36.693Z,12.88
2019-02-18T10:39:08.370Z,15.32
2019-02-18T10:41:40.017Z,13.18
2019-02-18T10:44:11.775Z,12.47
2019-02-18T10:46:43.441Z,13.80
2019-02-18T10:49:19.709Z,13.48
2019-02-18T10:51:48.749Z,15.78
2019-02-18T10:54:20.412Z,14.78
2019-02-18T10:56:52.181Z,14.33
2019-02-18T10:59:23.876Z,14.87
2019-02-18T11:01:55.559Z,14.18
2019-02-18T11:04:27.241Z,12.47
2019-02-18T11:06:58.910Z,13.08
2019-02-18T11:09:30.713Z,15.50
2019-02-18T11:12:02.581Z,14.75
2019-02-18T11:14:34.379Z,15.95
2019-02-18T11:17:06.229Z,14.40
2019-02-18T11:19:37.904Z,15.85
2019-02-18T11:22:09.556Z,14.90
2019-02-18T11:24:41.550Z,18.32
2019-02-18T11:27:13.328Z,13.25
2019-02-18T11:29:44.995Z,12.93
2019-02-18T11:32:16.682Z,12.78
2019-02-18T11:34:48.352Z,13.50
2019-02-18T11:37:20.127Z,13.20
2019-02-18T11:39:51.802Z,15.00
2019-02-18T11:42:23.609Z,14.18
2019-02-18T11:44:55.345Z,14.23
2019-02-18T11:47:28.288Z,14.13
2019-02-18T11:50:00.039Z,14.15
2019-02-18T11:52:31.794Z,13.50
2019-02-18T11:55:03.988Z,15.48
2019-02-18T11:57:36.302Z,14.65
2019-02-18T12:00:09.370Z,13.50
2019-02-18T12:02:41.233Z,13.18
2019-02-18T12:05:12.901Z,14.25
2019-02-18T12:07:44.660Z,13.05
2019-02-18T12:10:16.516Z,14.35
2019-02-18T12:12:48.268Z,13.83
2019-02-18T12:15:19.997Z,13.90
2019-02-18T12:17:51.862Z,12.68
2019-02-18T12:20:23.636Z,12.25
2019-02-18T12:22:55.317Z,13.38
2019-02-18T12:25:27.391Z,14.15
2019-02-18T12:27:59.076Z,13.43
2019-02-18T12:30:32.450Z,13.62
2019-02-18T12:33:04.346Z,12.60
2019-02-18T12:35:36.337Z,13.22
2019-02-18T12:38:08.196Z,15.32
2019-02-18T12:40:39.860Z,12.63
2019-02-18T12:43:11.705Z,12.13
2019-02-18T12:45:43.514Z,14.10
2019-02-18T12:48:15.317Z,12.78
2019-02-18T12:50:47.101Z,12.23
2019-02-18T12:53:18.751Z,12.50
2019-02-18T12:55:50.559Z,13.03
2019-02-18T12:58:22.322Z,13.00
2019-02-18T13:00:54.213Z,15.63
2019-02-18T13:03:26.433Z,16.07
2019-02-18T13:05:58.232Z,13.68
2019-02-18T13:08:30.104Z,15.83
2019-02-18T13:11:01.925Z,13.70
2019-02-18T13:13:33.711Z,13.00
2019-02-18T13:16:05.477Z,13.38
2019-02-18T13:18:37.568Z,14.30
2019-02-18T13:21:09.357Z,13.58
2019-02-18T13:23:41.249Z,15.20
2019-02-18T13:26:13.038Z,13.68
2019-02-18T13:28:44.705Z,14.65
2019-02-18T13:31:16.702Z,15.75
2019-02-18T13:33:48.442Z,14.85
2019-02-18T13:36:20.329Z,15.70
2019-02-18T13:38:51.998Z,17.57
2019-02-18T13:41:23.687Z,14.83
2019-02-18T13:43:55.762Z,15.32
2019-02-18T13:46:27.477Z,14.63
2019-02-18T13:48:59.189Z,15.08
2019-02-18T13:51:31.198Z,15.15
2019-02-18T13:54:02.872Z,15.03
2019-02-18T13:56:34.983Z,16.00
2019-02-18T13:59:06.786Z,14.50
2019-02-18T14:01:38.618Z,15.72
2019-02-18T14:04:10.386Z,14.00
2019-02-18T14:06:42.186Z,16.20
2019-02-18T14:09:14.171Z,14.43
2019-02-18T14:11:45.998Z,15.53
2019-02-18T14:14:17.820Z,15.10
2019-02-18T14:16:49.562Z,15.47
2019-02-18T14:19:21.330Z,14.80
2019-02-18T14:21:53.317Z,14.70
2019-02-18T14:24:25.002Z,16.13
2019-02-18T14:26:56.884Z,14.23
2019-02-18T14:29:28.753Z,15.27
2019-02-18T14:32:00.665Z,14.60
2019-02-18T14:34:32.527Z,14.63
2019-02-18T14:37:04.315Z,14.20
2019-02-18T14:39:36.099Z,15.87
2019-02-18T14:42:07.974Z,14.03
2019-02-18T14:44:39.746Z,14.40
2019-02-18T14:47:11.547Z,14.80
2019-02-18T14:49:43.425Z,14.07
2019-02-18T14:52:15.498Z,14.43
2019-02-18T14:54:47.157Z,16.67
2019-02-18T14:57:19.044Z,15.67
2019-02-18T14:59:50.843Z,15.17
2019-02-18T15:02:22.637Z,15.17
2019-02-18T15:04:54.419Z,14.07
2019-02-18T15:07:26.121Z,13.97
2019-02-18T15:09:57.813Z,15.07
2019-02-18T15:12:33.089Z,14.43
2019-02-18T15:15:03.428Z,12.87
2019-02-18T15:17:35.234Z,13.70
2019-02-18T15:20:07.071Z,14.27
2019-02-18T15:22:39.412Z,13.97
2019-02-18T15:25:11.176Z,14.27
2019-02-18T15:27:43.029Z,13.37
2019-02-18T15:30:15.156Z,12.70
2019-02-18T15:32:48.073Z,11.90
2019-02-18T15:35:20.174Z,12.13
2019-02-18T15:37:51.985Z,11.97
2019-02-18T15:40:23.977Z,12.33
2019-02-18T15:42:55.770Z,12.03
2019-02-18T15:45:27.437Z,12.07
2019-02-18T15:48:01.713Z,12.30
2019-02-18T15:50:32.905Z,12.57
2019-02-18T15:53:04.612Z,12.63
2019-02-18T15:55:37.546Z,14.13
2019-02-18T15:58:09.271Z,16.00
2019-02-18T16:00:41.070Z,14.20
2019-02-18T16:03:12.841Z,15.80
2019-02-18T16:05:44.546Z,13.40
2019-02-18T16:08:16.290Z,13.30
2019-02-18T16:10:48.057Z,14.47
2019-02-18T16:13:19.750Z,14.13
2019-02-18T16:15:51.560Z,16.40
2019-02-18T16:18:23.365Z,13.10
2019-02-18T16:20:55.126Z,14.37
2019-02-18T16:23:26.850Z,13.77
2019-02-18T16:25:58.806Z,12.23
2019-02-18T16:28:33.240Z,14.17
2019-02-18T16:31:08.941Z,14.37
2019-02-18T16:33:43.087Z,13.70
2019-02-18T16:36:15.324Z,15.63
2019-02-18T16:38:47.118Z,15.80
2019-02-18T16:41:18.854Z,15.93
2019-02-18T16:43:51.414Z,13.40
2019-02-18T16:46:24.053Z,17.23
2019-02-18T16:48:57.050Z,15.07
2019-02-18T16:51:29.083Z,14.50
2019-02-18T16:54:00.762Z,14.40
2019-02-18T16:56:33.132Z,13.27
2019-02-18T16:59:05.176Z,15.47
2019-02-18T17:01:36.900Z,13.87
2019-02-18T17:04:08.726Z,15.90
2019-02-18T17:06:40.371Z,15.30
2019-02-18T17:09:12.476Z,13.57
2019-02-18T17:11:44.445Z,13.10
2019-02-18T17:14:16.229Z,13.10
2019-02-18T17:16:47.963Z,13.53
2019-02-18T17:19:19.707Z,13.77
2019-02-18T17:21:51.446Z,12.70
2019-02-18T17:24:23.276Z,12.27
2019-02-18T17:26:54.902Z,11.93
2019-02-18T17:29:26.544Z,14.10
2019-02-18T17:31:58.273Z,13.83
2019-02-18T17:34:29.955Z,12.83
2019-02-18T17:37:01.792Z,15.20
2019-02-18T17:39:33.441Z,13.80
2019-02-18T17:42:05.074Z,13.43
2019-02-18T17:44:36.872Z,13.00
2019-02-18T17:47:08.587Z,12.23
2019-02-18T17:49:40.516Z,12.80
2019-02-18T17:52:12.169Z,13.70
2019-02-18T17:54:43.926Z,12.53
2019-02-18T17:57:15.653Z,13.90
2019-02-18T17:59:47.298Z,13.27
2019-02-18T18:02:23.000Z,13.53
2019-02-18T18:04:54.725Z,12.70
2019-02-18T18:07:26.348Z,13.00
2019-02-18T18:09:58.091Z,13.47
2019-02-18T18:12:29.743Z,14.97
2019-02-18T18:15:01.694Z,13.23
2019-02-18T18:17:33.434Z,14.67
2019-02-18T18:20:05.590Z,18.87
2019-02-18T18:22:37.333Z,15.63
2019-02-18T18:25:09.241Z,25.23
2019-02-18T18:27:41.173Z,26.57
2019-02-18T18:30:13.553Z,34.10
2019-02-18T18:32:45.394Z,20.53
2019-02-18T18:35:17.164Z,17.50
2019-02-18T18:37:48.794Z,18.03
2019-02-18T18:40:20.538Z,16.73
2019-02-18T18:42:52.159Z,17.10
2019-02-18T18:45:23.783Z,18.60
2019-02-18T18:47:58.427Z,17.57
2019-02-18T18:50:30.453Z,18.10
2019-02-18T18:53:02.086Z,15.57
2019-02-18T18:55:34.063Z,17.87
2019-02-18T18:58:05.702Z,15.07
2019-02-18T19:00:37.370Z,15.30
2019-02-18T19:03:09.328Z,14.93
2019-02-18T19:05:41.068Z,14.33
2019-02-18T19:08:13.069Z,14.77
2019-02-18T19:10:44.782Z,15.30
2019-02-18T19:13:16.447Z,14.40
2019-02-18T19:15:49.800Z,15.13
2019-02-18T19:18:21.636Z,15.53
2019-02-18T19:20:53.385Z,14.60
2019-02-18T19:23:25.014Z,15.50
2019-02-18T19:25:57.063Z,15.13
2019-02-18T19:28:28.724Z,16.60
2019-02-18T19:31:00.494Z,17.97
2019-02-18T19:33:32.120Z,16.33
2019-02-18T19:36:04.836Z,14.93
2019-02-18T19:38:36.775Z,16.67
2019-02-18T19:41:09.017Z,15.63
2019-02-18T19:43:40.887Z,16.03
2019-02-18T19:46:12.740Z,17.93
2019-02-18T19:48:44.562Z,17.23
2019-02-18T19:51:16.284Z,21.17
2019-02-18T19:53:47.951Z,17.03
2019-02-18T19:56:20.753Z,16.30
2019-02-18T19:58:52.614Z,15.00
2019-02-18T20:01:24.332Z,15.93
2019-02-18T20:03:57.016Z,16.97
2019-02-18T20:06:28.769Z,16.77
2019-02-18T20:09:00.433Z,18.70
2019-02-18T20:11:32.216Z,17.43
2019-02-18T20:14:04.293Z,18.77
2019-02-18T20:16:35.978Z,15.83
2019-02-18T20:19:07.706Z,16.80
2019-02-18T20:21:39.541Z,17.53
2019-02-18T20:24:11.343Z,16.93
2019-02-18T20:26:44.548Z,15.70
2019-02-18T20:29:16.552Z,15.77
2019-02-18T20:31:48.452Z,16.70
2019-02-18T20:34:20.324Z,16.20
2019-02-18T20:36:52.407Z,16.57
2019-02-18T20:39:24.547Z,16.40
2019-02-18T20:41:56.571Z,17.40
2019-02-18T20:44:28.433Z,18.07
2019-02-18T20:47:00.388Z,16.40
2019-02-18T20:49:32.536Z,18.30
2019-02-18T20:52:04.513Z,17.10
2019-02-18T20:54:36.285Z,17.93
2019-02-18T20:57:08.078Z,16.27
2019-02-18T20:59:39.853Z,16.27
2019-02-18T21:02:11.848Z,17.17
2019-02-18T21:04:43.630Z,18.33
2019-02-18T21:07:15.437Z,17.27
2019-02-18T21:09:47.234Z,16.90
2019-02-18T21:12:20.022Z,16.50
2019-02-18T21:14:52.607Z,16.00
2019-02-18T21:17:24.406Z,16.47
2019-02-18T21:19:56.165Z,15.83
2019-02-18T21:22:27.940Z,16.70
2019-02-18T21:24:59.812Z,16.83
2019-02-18T21:27:31.598Z,15.87
2019-02-18T21:30:03.734Z,16.37
2019-02-18T21:32:35.547Z,15.50
2019-02-18T21:35:07.431Z,15.10
2019-02-18T21:37:39.199Z,16.20
2019-02-18T21:40:11.100Z,17.57
2019-02-18T21:42:45.346Z,17.70
2019-02-18T21:45:17.084Z,17.97
2019-02-18T21:47:48.865Z,18.67
2019-02-18T21:50:20.638Z,17.40
2019-02-18T21:52:52.427Z,17.33
2019-02-18T21:55:24.186Z,17.90
2019-02-18T21:57:55.977Z,19.53
2019-02-18T22:00:27.742Z,17.27
2019-02-18T22:02:59.712Z,19.10
2019-02-18T22:05:31.509Z,18.27
2019-02-18T22:08:03.506Z,18.60
2019-02-18T22:10:35.272Z,19.30
2019-02-18T22:13:07.069Z,19.67
2019-02-18T22:15:39.207Z,19.50
2019-02-18T22:18:10.980Z,19.47
2019-02-18T22:20:42.737Z,18.80
2019-02-18T22:23:14.520Z,20.90
2019-02-18T22:25:46.288Z,19.00
2019-02-18T22:28:18.197Z,19.53
2019-02-18T22:30:49.960Z,20.40
2019-02-18T22:33:21.724Z,19.37
2019-02-18T22:35:53.475Z,19.53
2019-02-18T22:38:25.267Z,19.80
2019-02-18T22:40:57.334Z,19.97
2019-02-18T22:43:29.116Z,19.47
2019-02-18T22:46:00.878Z,20.13
2019-02-18T22:48:32.679Z,20.10
2019-02-18T22:51:04.440Z,19.20
2019-02-18T22:53:36.209Z,21.67
2019-02-18T22:56:07.985Z,19.63
2019-02-18T22:58:39.790Z,18.53
2019-02-18T23:01:11.761Z,20.03
2019-02-18T23:03:43.532Z,18.50
2019-02-18T23:06:15.284Z,19.87
2019-02-18T23:08:47.251Z,18.97
2019-02-18T23:11:19.014Z,20.33
2019-02-18T23:13:50.763Z,17.47
2019-02-18T23:16:22.544Z,18.77
2019-02-18T23:18:54.312Z,19.20
2019-02-18T23:21:26.378Z,18.17
2019-02-18T23:23:58.164Z,19.07
2019-02-18T23:26:29.936Z,18.70
2019-02-18T23:29:01.721Z,19.90
2019-02-18T23:31:33.490Z,18.30
2019-02-18T23:34:05.443Z,18.50
2019-02-18T23:36:37.308Z,17.77
2019-02-18T23:39:09.181Z,17.70
2019-02-18T23:41:40.925Z,18.30
2019-02-18T23:44:12.705Z,16.40
2019-02-18T23:46:44.468Z,17.90
2019-02-18T23:49:16.145Z,16.90
2019-02-18T23:51:47.960Z,16.13
2019-02-18T23:54:19.733Z,17.13
2019-02-18T23:56:51.501Z,17.30
2019-02-18T23:59:23.299Z,16.47
